Time;durP1;ratioP1;P1;durP2;ratioP2;P2;SDS_P1;SDS_P2;PMS_P1;PMS_P2;Temp;Humidity;BMP_temperature;BMP_pressure;BME280_temperature;BME280_humidity;BME280_pressure;Samples;Min_cycle;Max_cycle;Signal;HPM_P1;HPM_P2
2022/05/21 00:02:00;;;;;;;17.10;10.88;;;12.30;99.90;;;;;;4995989;28;20038;-87
2022/05/21 00:04:25;;;;;;;18.85;11.25;;;12.20;99.90;;;;;;4996054;28;20033;-87
2022/05/21 00:06:51;;;;;;;17.98;10.65;;;12.20;99.90;;;;;;4996244;28;20062;-86
2022/05/21 00:09:18;;;;;;;16.65;10.70;;;12.30;99.90;;;;;;4995895;28;20034;-87
2022/05/21 00:11:44;;;;;;;18.13;12.07;;;12.20;99.90;;;;;;5012078;28;20138;-87
2022/05/21 00:14:10;;;;;;;17.60;10.20;;;12.30;99.90;;;;;;4995316;28;20030;-79
2022/05/21 00:16:36;;;;;;;16.05;11.27;;;12.30;99.90;;;;;;4979563;28;20077;-79
2022/05/21 00:19:03;;;;;;;15.63;10.45;;;12.30;99.90;;;;;;4995100;28;20422;-79
2022/05/21 00:21:28;;;;;;;17.00;10.63;;;12.40;99.90;;;;;;4995082;28;20037;-79
2022/05/21 00:23:54;;;;;;;17.75;11.00;;;12.40;99.90;;;;;;4978776;28;20428;-79
2022/05/21 00:26:21;;;;;;;17.40;11.25;;;12.40;99.90;;;;;;4978774;28;20101;-76
2022/05/21 00:28:47;;;;;;;21.42;12.35;;;12.40;99.90;;;;;;4995150;28;20494;-79
2022/05/21 00:31:15;;;;;;;18.23;12.13;;;12.50;99.90;;;;;;4995160;28;20057;-78
2022/05/21 00:33:42;;;;;;;17.30;11.82;;;12.50;99.90;;;;;;4995898;28;20442;-79
2022/05/21 00:36:09;;;;;;;15.00;10.63;;;12.50;99.90;;;;;;4994685;28;20035;-79
2022/05/21 00:38:36;;;;;;;21.00;12.45;;;12.50;99.90;;;;;;4994630;28;20034;-79
2022/05/21 00:41:02;;;;;;;18.67;12.57;;;12.50;99.90;;;;;;5010678;28;20038;-79
2022/05/21 00:43:47;;;;;;;20.08;13.20;;;12.50;99.90;;;;;;4994728;28;20038;-79
2022/05/21 00:46:13;;;;;;;18.48;12.98;;;12.60;99.90;;;;;;4994406;28;20031;-79
2022/05/21 00:48:40;;;;;;;20.05;12.30;;;12.60;99.90;;;;;;4993679;28;20088;-78
2022/05/21 00:51:12;;;;;;;20.08;13.52;;;12.60;99.90;;;;;;4978534;28;20050;-79
2022/05/21 00:53:38;;;;;;;20.80;14.20;;;12.60;99.90;;;;;;4995755;28;20105;-79
2022/05/21 00:56:05;;;;;;;21.80;13.52;;;12.70;99.90;;;;;;4978287;28;20033;-79
2022/05/21 01:01:17;;;;;;;21.58;14.50;;;12.70;99.90;;;;;;4994659;28;20508;-79
2022/05/21 01:03:45;;;;;;;20.70;13.55;;;12.70;99.90;;;;;;4978154;28;20049;-79
2022/05/21 01:06:11;;;;;;;22.35;15.38;;;12.70;99.90;;;;;;4994811;28;20390;-84
2022/05/21 01:08:38;;;;;;;21.48;13.85;;;12.70;99.90;;;;;;4994884;28;20031;-84
2022/05/21 01:11:11;;;;;;;18.48;13.60;;;12.70;99.90;;;;;;4994928;28;20033;-84
2022/05/21 01:13:39;;;;;;;20.98;13.40;;;12.80;99.90;;;;;;5011117;28;20026;-83
2022/05/21 01:16:07;;;;;;;21.63;14.93;;;12.80;99.90;;;;;;4995545;28;20031;-84
2022/05/21 01:18:32;;;;;;;22.02;15.20;;;12.80;99.90;;;;;;4978771;28;20034;-89
2022/05/21 01:21:00;;;;;;;22.30;15.43;;;12.80;99.90;;;;;;4978566;28;20038;-87
2022/05/21 01:23:26;;;;;;;19.77;13.60;;;12.80;99.90;;;;;;4995766;28;20034;-83
2022/05/21 01:25:56;;;;;;;20.13;13.82;;;12.80;99.90;;;;;;4995734;28;20525;-89
2022/05/21 01:28:24;;;;;;;21.60;12.95;;;12.80;99.90;;;;;;4978285;28;20038;-86
2022/05/21 01:30:55;;;;;;;23.58;14.75;;;12.80;99.90;;;;;;4994695;28;20036;-84
2022/05/21 01:33:24;;;;;;;18.50;13.80;;;12.90;99.90;;;;;;5010932;28;20026;-88
2022/05/21 01:35:49;;;;;;;18.33;13.02;;;12.90;99.90;;;;;;4994729;28;20023;-82
2022/05/21 01:38:18;;;;;;;20.25;13.95;;;12.90;99.90;;;;;;4993880;28;20057;-88
2022/05/21 01:40:44;;;;;;;20.52;12.82;;;12.80;99.90;;;;;;4994091;28;20053;-88
2022/05/21 01:45:54;;;;;;;;;;;12.90;99.90;;;;;;4995773;28;20111;-86
2022/05/21 01:48:22;;;;;;;21.30;13.10;;;12.90;99.90;;;;;;5010824;28;20354;-83
2022/05/21 01:50:49;;;;;;;19.55;13.18;;;12.90;99.90;;;;;;4977829;28;20093;-87
2022/05/21 01:53:15;;;;;;;21.85;13.23;;;12.90;99.90;;;;;;5010536;28;20029;-86
2022/05/21 01:55:42;;;;;;;32.05;14.85;;;12.90;99.90;;;;;;4978259;28;20034;-87
2022/05/21 01:58:07;;;;;;;20.63;13.20;;;13.00;99.90;;;;;;4994304;28;20054;-88
2022/05/21 02:00:33;;;;;;;23.30;13.25;;;13.00;99.90;;;;;;4993542;28;20165;-83
2022/05/21 02:02:59;;;;;;;22.60;13.73;;;13.00;99.90;;;;;;4993905;28;20038;-86
2022/05/21 02:05:25;;;;;;;23.02;12.93;;;13.00;99.90;;;;;;5010211;28;20033;-82
2022/05/21 02:07:50;;;;;;;17.77;12.13;;;13.00;99.90;;;;;;4995036;28;20088;-87
2022/05/21 02:10:16;;;;;;;23.80;12.60;;;13.10;99.90;;;;;;4977891;28;20097;-85
2022/05/21 02:12:42;;;;;;;21.13;13.23;;;13.10;99.90;;;;;;4977633;28;20031;-83
2022/05/21 02:15:08;;;;;;;28.70;13.07;;;13.10;99.90;;;;;;4977871;28;20072;-83
2022/05/21 02:17:34;;;;;;;25.02;12.88;;;13.10;99.90;;;;;;4977150;28;20460;-82
2022/05/21 02:20:00;;;;;;;30.67;15.05;;;13.10;99.90;;;;;;4994965;28;20073;-81
2022/05/21 02:22:27;;;;;;;19.65;13.07;;;13.10;99.90;;;;;;4993500;28;20038;-85
2022/05/21 02:24:52;;;;;;;24.70;13.48;;;13.10;99.90;;;;;;4993260;28;20089;-81
2022/05/21 02:27:18;;;;;;;22.50;14.57;;;13.20;99.90;;;;;;4993472;28;20549;-84
2022/05/21 02:29:44;;;;;;;19.85;13.65;;;13.10;99.90;;;;;;4976922;28;20030;-80
2022/05/21 02:32:12;;;;;;;24.02;13.57;;;13.20;99.90;;;;;;4993249;28;20118;-82
2022/05/21 02:34:39;;;;;;;23.88;14.57;;;13.10;99.90;;;;;;4993312;28;20092;-84
2022/05/21 02:39:50;;;;;;;24.85;13.30;;;13.20;99.90;;;;;;4994657;28;20109;-87
2022/05/21 02:45:00;;;;;;;;;;;13.20;99.90;;;;;;4994124;28;20045;-88
2022/05/21 02:47:26;;;;;;;19.40;13.10;;;13.20;99.90;;;;;;5026347;28;19910;-87
2022/05/21 02:49:52;;;;;;;22.73;12.55;;;13.20;99.90;;;;;;4994583;28;20057;-86
2022/05/21 02:52:18;;;;;;;22.20;12.43;;;13.20;99.90;;;;;;5009899;28;20526;-87
2022/05/21 02:54:43;;;;;;;16.90;11.40;;;13.20;99.90;;;;;;4996718;28;20030;-86
2022/05/21 02:57:10;;;;;;;25.55;13.30;;;13.20;99.90;;;;;;4996667;28;20121;-85
2022/05/21 02:59:37;;;;;;;23.33;12.82;;;13.20;99.90;;;;;;5013013;28;20037;-84
2022/05/21 03:02:03;;;;;;;24.38;12.73;;;13.20;99.90;;;;;;5012444;28;20037;-82
2022/05/21 03:04:29;;;;;;;21.27;12.52;;;13.20;99.90;;;;;;5012969;28;20018;-82
2022/05/21 03:06:55;;;;;;;20.27;13.32;;;13.20;99.90;;;;;;5012674;28;20022;-82
2022/05/21 03:12:05;;;;;;;24.38;13.38;;;13.20;99.90;;;;;;5015998;28;20033;-85
2022/05/21 03:14:31;;;;;;;22.52;14.10;;;13.20;99.90;;;;;;5000808;28;20081;-87
2022/05/21 03:16:59;;;;;;;26.45;13.68;;;13.30;99.90;;;;;;5000723;28;20478;-85
2022/05/21 03:19:26;;;;;;;28.20;13.88;;;13.20;99.90;;;;;;5017482;28;20026;-85
2022/05/21 03:21:52;;;;;;;23.73;12.73;;;13.30;99.90;;;;;;5000100;28;20026;-87
2022/05/21 03:24:17;;;;;;;22.23;12.85;;;13.30;99.90;;;;;;4999852;28;20420;-85
2022/05/21 03:26:43;;;;;;;22.73;11.65;;;13.30;99.90;;;;;;4999572;28;20124;-84
2022/05/21 03:29:09;;;;;;;26.98;13.93;;;13.30;99.90;;;;;;4999393;28;20029;-85
2022/05/21 03:31:34;;;;;;;19.55;13.27;;;13.30;99.90;;;;;;5032089;28;20029;-80
2022/05/21 03:34:00;;;;;;;25.42;14.80;;;13.30;99.90;;;;;;5017042;28;20458;-83
2022/05/21 03:36:26;;;;;;;22.67;13.40;;;13.30;99.90;;;;;;4999449;28;20037;-87
2022/05/21 03:38:52;;;;;;;23.02;13.15;;;13.30;99.90;;;;;;5015563;28;20030;-87
2022/05/21 03:41:18;;;;;;;23.38;13.43;;;13.30;99.90;;;;;;5015491;28;20034;-85
2022/05/21 03:43:44;;;;;;;28.40;14.32;;;13.30;99.90;;;;;;4999376;28;20030;-84
2022/05/21 03:46:10;;;;;;;25.17;14.05;;;13.30;99.90;;;;;;5015572;28;20037;-87
2022/05/21 03:48:36;;;;;;;21.55;11.73;;;13.30;99.90;;;;;;4984122;28;20037;-84
2022/05/21 03:51:02;;;;;;;22.98;12.60;;;13.30;99.90;;;;;;5018571;28;20405;-87
2022/05/21 03:53:28;;;;;;;24.20;12.43;;;13.30;99.90;;;;;;5002855;28;20033;-82
2022/05/21 03:55:54;;;;;;;26.20;13.60;;;13.40;99.90;;;;;;5036380;28;20029;-88
2022/05/21 03:58:21;;;;;;;20.25;11.90;;;13.30;99.90;;;;;;5019096;28;20030;-85
2022/05/21 04:00:46;;;;;;;24.17;12.25;;;13.40;99.90;;;;;;5036689;28;20440;-88
2022/05/21 04:03:12;;;;;;;26.83;13.38;;;13.40;99.90;;;;;;5002423;28;20057;-87
2022/05/21 04:05:38;;;;;;;24.80;11.95;;;13.40;99.90;;;;;;5002737;28;20022;-87
2022/05/21 04:08:04;;;;;;;20.10;10.75;;;13.40;99.90;;;;;;4986080;28;20030;-84
2022/05/21 04:10:30;;;;;;;30.13;13.00;;;13.40;99.90;;;;;;5002440;28;20137;-87
2022/05/21 04:12:55;;;;;;;27.52;11.98;;;13.40;99.90;;;;;;5002364;28;20033;-87
2022/05/21 04:15:21;;;;;;;26.25;13.00;;;13.50;99.90;;;;;;5002543;28;20029;-84
2022/05/21 04:17:47;;;;;;;29.75;13.40;;;13.50;99.90;;;;;;5002342;28;20022;-87
2022/05/21 04:20:15;;;;;;;24.05;11.52;;;13.50;99.90;;;;;;5002422;28;20022;-83
2022/05/21 04:22:42;;;;;;;24.38;10.73;;;13.50;99.90;;;;;;5036534;28;20022;-86
2022/05/21 04:25:09;;;;;;;28.17;12.48;;;13.50;99.90;;;;;;5019436;28;20025;-83
2022/05/21 04:27:36;;;;;;;20.52;11.10;;;13.60;99.90;;;;;;5018308;28;20072;-83
2022/05/21 04:30:08;;;;;;;22.90;10.90;;;13.50;99.90;;;;;;5018090;28;20112;-82
2022/05/21 04:32:35;;;;;;;30.48;13.27;;;13.60;99.90;;;;;;5018226;28;20022;-84
2022/05/21 04:35:01;;;;;;;22.02;12.35;;;13.60;99.90;;;;;;5034416;28;20489;-85
2022/05/21 04:37:26;;;;;;;23.67;12.23;;;13.60;99.90;;;;;;5001859;28;20045;-83
2022/05/21 04:39:52;;;;;;;24.33;11.35;;;13.60;99.90;;;;;;5035607;28;20565;-83
2022/05/21 04:42:17;;;;;;;27.52;12.60;;;13.70;99.90;;;;;;5034390;28;20033;-87
2022/05/21 04:44:43;;;;;;;25.48;11.27;;;13.60;99.90;;;;;;4986235;28;20033;-87
2022/05/21 04:47:08;;;;;;;25.63;11.25;;;13.70;99.90;;;;;;5001470;28;20036;-85
2022/05/21 04:49:35;;;;;;;26.15;11.52;;;13.70;99.90;;;;;;4985256;28;20040;-85
2022/05/21 04:52:04;;;;;;;25.38;11.63;;;13.70;99.90;;;;;;5017458;28;20053;-87
2022/05/21 04:54:30;;;;;;;19.45;9.70;;;13.70;99.90;;;;;;5035287;28;20028;-85
2022/05/21 04:56:56;;;;;;;21.08;9.30;;;13.80;99.90;;;;;;5017314;28;20022;-86
2022/05/21 04:59:22;;;;;;;20.02;10.70;;;13.80;99.90;;;;;;4984628;28;20033;-87
2022/05/21 05:01:47;;;;;;;23.05;10.95;;;13.80;99.90;;;;;;5035164;28;20030;-84
2022/05/21 05:04:13;;;;;;;23.63;10.45;;;13.80;99.90;;;;;;5017798;28;20033;-85
2022/05/21 05:06:40;;;;;;;16.55;9.80;;;13.80;99.90;;;;;;5001065;28;20033;-84
2022/05/21 05:09:07;;;;;;;29.33;10.23;;;13.90;99.90;;;;;;5034083;28;20037;-86
2022/05/21 05:11:33;;;;;;;24.85;10.02;;;13.90;99.90;;;;;;5016803;28;20483;-84
2022/05/21 05:13:59;;;;;;;22.38;8.85;;;13.90;99.90;;;;;;5017495;28;20033;-83
2022/05/21 05:16:25;;;;;;;26.63;8.98;;;13.90;99.90;;;;;;5017368;28;20132;-84
2022/05/21 05:18:50;;;;;;;23.30;8.35;;;13.90;99.90;;;;;;5000707;28;20029;-84
2022/05/21 05:21:16;;;;;;;23.35;9.07;;;13.90;99.90;;;;;;5029241;28;20026;-84
2022/05/21 05:23:41;;;;;;;27.00;9.35;;;13.90;99.90;;;;;;5035111;28;20036;-85
2022/05/21 05:26:07;;;;;;;23.85;10.27;;;14.00;99.90;;;;;;5001231;28;20026;-86
2022/05/21 05:28:33;;;;;;;22.38;9.07;;;14.00;99.90;;;;;;5034612;28;20538;-84
2022/05/21 05:30:58;;;;;;;23.20;8.50;;;14.00;99.90;;;;;;5034807;28;20034;-86
2022/05/21 05:33:25;;;;;;;18.52;7.40;;;14.00;99.90;;;;;;5016980;28;20378;-84
2022/05/21 05:35:52;;;;;;;26.77;8.07;;;14.00;99.90;;;;;;5000927;28;20026;-87
2022/05/21 05:38:19;;;;;;;25.15;8.00;;;14.00;99.90;;;;;;5000843;28;20021;-85
2022/05/21 05:40:47;;;;;;;18.42;6.78;;;13.90;99.90;;;;;;5004416;28;20080;-84
2022/05/21 05:43:15;;;;;;;24.42;6.63;;;13.90;99.90;;;;;;5014832;28;20025;-83
2022/05/21 05:45:41;;;;;;;21.13;6.63;;;13.80;99.90;;;;;;5018849;28;20035;-83
2022/05/21 05:48:07;;;;;;;21.23;6.00;;;13.80;99.90;;;;;;5032337;28;20045;-84
2022/05/21 05:50:32;;;;;;;21.92;6.35;;;13.80;99.90;;;;;;5031920;28;20473;-78
2022/05/21 05:53:05;;;;;;;17.42;6.18;;;13.80;99.90;;;;;;5040250;28;20028;-76
2022/05/21 05:55:33;;;;;;;15.88;5.07;;;13.80;99.90;;;;;;5053798;28;20025;-78
2022/05/21 05:57:59;;;;;;;15.68;4.55;;;13.90;99.90;;;;;;5053714;28;20048;-77
2022/05/21 06:00:26;;;;;;;21.20;4.95;;;13.90;99.90;;;;;;5002731;28;20060;-78
2022/05/21 06:03:04;;;;;;;21.77;5.18;;;13.90;99.90;;;;;;5019249;28;20115;-79
2022/05/21 06:05:33;;;;;;;18.40;4.25;;;13.90;99.90;;;;;;5037652;28;20087;-77
2022/05/21 06:08:07;;;;;;;18.33;4.82;;;14.00;99.90;;;;;;5053369;28;20021;-79
2022/05/21 06:10:36;;;;;;;18.35;4.13;;;14.00;99.80;;;;;;5032230;28;20489;-77
2022/05/21 06:13:03;;;;;;;17.95;4.85;;;14.00;99.60;;;;;;5036232;28;20021;-76
2022/05/21 06:15:30;;;;;;;18.13;4.13;;;14.10;99.40;;;;;;5032025;28;20018;-77
2022/05/21 06:17:56;;;;;;;17.48;4.07;;;14.10;99.00;;;;;;5015540;28;20080;-77
2022/05/21 06:20:24;;;;;;;16.67;3.83;;;14.20;99.00;;;;;;5015227;28;20030;-77
2022/05/21 06:22:51;;;;;;;19.90;3.65;;;14.20;98.70;;;;;;5015585;28;20025;-77
2022/05/21 06:25:19;;;;;;;14.25;3.50;;;14.30;98.70;;;;;;5032962;28;20101;-77
2022/05/21 06:27:47;;;;;;;15.18;3.53;;;14.30;98.70;;;;;;5015208;28;20095;-78
2022/05/21 06:30:14;;;;;;;19.40;3.28;;;14.40;98.60;;;;;;5030852;28;20163;-78
2022/05/21 06:32:39;;;;;;;17.08;3.20;;;14.50;98.30;;;;;;5015323;28;20028;-79
2022/05/21 06:35:06;;;;;;;17.50;3.00;;;14.50;98.00;;;;;;5031859;28;20021;-79
2022/05/21 06:37:31;;;;;;;13.27;3.20;;;14.60;98.00;;;;;;5010160;28;20021;-79
2022/05/21 06:39:57;;;;;;;16.67;3.05;;;14.70;98.00;;;;;;5032736;28;20390;-77
2022/05/21 06:42:23;;;;;;;15.63;2.92;;;14.80;97.60;;;;;;5052912;28;20025;-78
2022/05/21 06:44:51;;;;;;;24.50;4.05;;;14.80;97.80;;;;;;5052975;28;20028;-78
2022/05/21 06:47:16;;;;;;;12.50;2.72;;;14.90;97.20;;;;;;5037690;28;20385;-78
2022/05/21 06:49:42;;;;;;;14.27;3.05;;;15.00;96.60;;;;;;5006326;28;20029;-76
2022/05/21 06:52:07;;;;;;;17.42;3.22;;;15.00;96.50;;;;;;5016955;28;20044;-78
2022/05/21 06:54:33;;;;;;;16.98;4.10;;;15.00;96.60;;;;;;5009926;28;20026;-76
2022/05/21 06:56:59;;;;;;;21.95;3.47;;;15.10;96.60;;;;;;4987334;28;20463;-78
2022/05/21 06:59:25;;;;;;;11.48;2.03;;;15.10;96.20;;;;;;4996199;28;20049;-78
2022/05/21 07:01:51;;;;;;;18.23;2.90;;;15.20;95.80;;;;;;5015640;28;20100;-78
2022/05/21 07:04:16;;;;;;;19.38;2.75;;;15.20;95.50;;;;;;5023495;28;20494;-80
2022/05/21 07:09:27;;;;;;;14.05;2.00;;;15.30;95.00;;;;;;5026251;28;20564;-77
2022/05/21 07:11:52;;;;;;;17.95;2.20;;;15.40;95.10;;;;;;5008788;28;20076;-80
2022/05/21 07:14:19;;;;;;;17.00;2.85;;;15.40;94.70;;;;;;5022646;28;20470;-78
2022/05/21 07:16:45;;;;;;;14.88;2.70;;;15.40;94.50;;;;;;4995996;28;20505;-78
2022/05/21 07:19:11;;;;;;;19.08;2.25;;;15.40;94.00;;;;;;4999863;28;20375;-78
2022/05/21 07:21:37;;;;;;;14.68;2.40;;;15.40;93.90;;;;;;4999252;28;20026;-76
2022/05/21 07:24:04;;;;;;;11.32;2.38;;;15.40;93.90;;;;;;5016885;28;20382;-79
2022/05/21 07:26:30;;;;;;;18.83;2.20;;;15.40;93.60;;;;;;5015555;28;20030;-79
2022/05/21 07:28:58;;;;;;;16.02;2.75;;;15.40;93.80;;;;;;5014885;28;20415;-76
2022/05/21 07:31:24;;;;;;;9.13;2.33;;;15.50;93.60;;;;;;5021935;28;20085;-79
2022/05/21 07:33:50;;;;;;;14.05;2.85;;;15.50;93.30;;;;;;4993554;28;20561;-79
2022/05/21 07:36:16;;;;;;;11.98;2.00;;;15.50;93.30;;;;;;4976232;28;20023;-78
2022/05/21 07:38:41;;;;;;;12.05;2.35;;;15.50;93.40;;;;;;4977107;28;20027;-75
2022/05/21 07:41:07;;;;;;;9.60;2.15;;;15.60;93.40;;;;;;4976115;28;20134;-78
2022/05/21 07:43:33;;;;;;;14.05;2.72;;;15.70;93.40;;;;;;4976108;28;20027;-76
2022/05/21 07:46:00;;;;;;;11.18;2.40;;;15.70;93.40;;;;;;4977242;28;20035;-78
2022/05/21 07:48:26;;;;;;;10.07;2.03;;;15.70;93.10;;;;;;4993777;28;20041;-78
2022/05/21 07:50:55;;;;;;;12.50;2.53;;;15.80;92.80;;;;;;5016074;28;20699;-77
2022/05/21 07:53:23;;;;;;;17.90;2.67;;;15.90;92.60;;;;;;5013945;28;20014;-78
2022/05/21 07:55:51;;;;;;;13.05;2.63;;;15.90;92.80;;;;;;5012935;28;20032;-77
2022/05/21 07:58:17;;;;;;;12.63;2.20;;;15.90;92.20;;;;;;5013699;28;20029;-77
2022/05/21 08:00:43;;;;;;;18.67;3.30;;;15.90;92.10;;;;;;4997469;28;20076;-78
2022/05/21 08:03:10;;;;;;;12.45;2.38;;;16.00;92.10;;;;;;5013691;28;20030;-77
2022/05/21 08:05:37;;;;;;;14.35;2.05;;;16.00;91.90;;;;;;5013706;28;20030;-78
2022/05/21 08:08:03;;;;;;;10.75;2.00;;;16.10;91.50;;;;;;5013626;28;20022;-79
2022/05/21 08:10:29;;;;;;;11.35;2.15;;;16.10;91.50;;;;;;5014676;28;20022;-77
2022/05/21 08:12:54;;;;;;;13.05;2.28;;;16.30;91.50;;;;;;5019939;28;20363;-78
2022/05/21 08:15:22;;;;;;;12.23;1.92;;;16.30;91.00;;;;;;5049777;28;20028;-80
2022/05/21 08:17:48;;;;;;;10.27;2.03;;;16.40;91.00;;;;;;5033219;28;20025;-77
2022/05/21 08:20:14;;;;;;;10.00;1.90;;;16.40;90.50;;;;;;5016787;28;20025;-77
2022/05/21 08:28:12;;;;;;;11.55;2.28;;;16.60;90.00;;;;;;5034138;28;20040;-81
2022/05/21 08:30:38;;;;;;;13.15;2.10;;;16.70;89.60;;;;;;5009626;28;20030;-79
2022/05/21 08:33:05;;;;;;;13.15;2.03;;;16.70;89.70;;;;;;5029923;28;20367;-79
2022/05/21 08:35:31;;;;;;;10.30;1.88;;;16.90;89.20;;;;;;5029998;28;20048;-82
2022/05/21 08:37:57;;;;;;;10.18;1.63;;;17.00;88.10;;;;;;5030306;28;20022;-85
2022/05/21 08:40:35;;;;;;;9.43;2.05;;;17.00;87.20;;;;;;5015228;28;20061;-86
2022/05/21 08:43:05;;;;;;;9.43;1.95;;;17.00;86.30;;;;;;5013655;28;20053;-83
2022/05/21 08:45:51;;;;;;;9.10;1.35;;;17.00;85.40;;;;;;5022198;28;20030;-83
2022/05/21 08:48:20;;;;;;;11.05;2.08;;;17.00;86.00;;;;;;5021231;28;20033;-87
2022/05/21 08:50:51;;;;;;;10.93;1.67;;;17.20;86.00;;;;;;4986692;28;1313289;-85
2022/05/21 08:53:20;;;;;;;8.80;1.80;;;17.20;85.50;;;;;;5032770;28;20116;-87
2022/05/21 08:55:50;;;;;;;9.20;1.85;;;17.30;86.10;;;;;;5036850;28;20018;-85
2022/05/21 08:58:36;;;;;;;10.40;2.13;;;17.30;86.10;;;;;;5037715;28;20021;-81
2022/05/21 09:01:02;;;;;;;10.13;1.70;;;17.40;84.40;;;;;;5037626;28;20013;-84
2022/05/21 09:03:28;;;;;;;13.68;2.30;;;17.40;83.30;;;;;;5018194;28;20030;-87
2022/05/21 09:06:08;;;;;;;10.55;2.17;;;17.40;83.40;;;;;;5034947;28;20124;-86
2022/05/21 09:08:57;;;;;;;8.35;1.90;;;17.40;82.70;;;;;;5035256;28;20021;-86
2022/05/21 09:11:41;;;;;;;9.90;1.98;;;17.40;82.60;;;;;;5035110;28;20036;-86
2022/05/21 09:14:12;;;;;;;10.35;1.98;;;17.50;82.90;;;;;;5037611;28;20030;-82
2022/05/21 09:16:57;;;;;;;8.05;1.88;;;17.40;82.80;;;;;;5015731;28;20030;-83
2022/05/21 09:19:24;;;;;;;;;;;17.50;83.10;;;;;;5017241;28;20101;-84
2022/05/21 09:21:56;;;;;;;11.25;1.77;;;17.60;81.70;;;;;;5016056;28;19912;-83
2022/05/21 09:24:36;;;;;;;7.28;1.88;;;17.70;81.40;;;;;;5016637;28;20049;-88
2022/05/21 09:27:04;;;;;;;8.63;1.95;;;17.70;80.60;;;;;;5013621;28;20026;-80
2022/05/21 09:29:33;;;;;;;9.93;1.80;;;17.70;81.30;;;;;;5046319;28;20022;-79
2022/05/21 09:31:59;;;;;;;9.93;1.98;;;17.60;80.40;;;;;;5014871;28;20046;-77
2022/05/21 09:34:28;;;;;;;10.02;1.85;;;17.70;80.50;;;;;;5029982;28;20045;-86
2022/05/21 09:36:55;;;;;;;11.73;2.20;;;17.70;80.90;;;;;;5014971;28;20029;-84
2022/05/21 09:39:38;;;;;;;7.95;2.15;;;17.80;80.70;;;;;;5013840;28;20026;-84
2022/05/21 09:45:33;;;;;;;8.98;2.38;;;17.90;79.90;;;;;;5013084;28;20284;-86
2022/05/21 09:48:01;;;;;;;8.70;2.72;;;18.00;79.50;;;;;;5029094;28;20038;-88
2022/05/21 09:50:27;;;;;;;10.05;3.78;;;18.00;79.50;;;;;;5039739;28;20069;-87
2022/05/21 09:52:53;;;;;;;8.30;1.90;;;18.00;79.80;;;;;;5050082;28;20481;-88
2022/05/21 09:55:28;;;;;;;9.93;2.63;;;18.10;79.90;;;;;;5033390;28;20044;-86
2022/05/21 09:57:54;;;;;;;9.07;2.40;;;18.20;79.30;;;;;;5016602;28;20051;-84
2022/05/21 10:00:31;;;;;;;14.25;3.17;;;18.30;79.00;;;;;;5016758;28;20607;-86
2022/05/21 10:02:59;;;;;;;10.55;2.58;;;18.30;78.00;;;;;;5016576;28;20025;-85
2022/05/21 10:05:30;;;;;;;11.55;2.88;;;18.20;76.40;;;;;;5016371;28;20466;-81
2022/05/21 10:11:03;;;;;;;8.70;2.33;;;18.20;77.60;;;;;;5035925;28;20041;-82
2022/05/21 10:13:35;;;;;;;14.25;2.30;;;18.30;77.70;;;;;;5035632;28;20025;-81
2022/05/21 10:16:23;;;;;;;8.38;2.17;;;18.40;77.30;;;;;;5053384;28;20017;-82
2022/05/21 10:19:23;;;;;;;5.38;1.75;;;18.60;76.60;;;;;;5035706;28;20028;-82
2022/05/21 10:22:26;;;;;;;10.73;2.50;;;18.80;76.50;;;;;;5032505;28;20033;-82
2022/05/21 10:25:05;;;;;;;9.90;2.03;;;19.00;75.70;;;;;;5053348;28;20036;-81
2022/05/21 10:28:08;;;;;;;12.18;2.38;;;19.20;76.50;;;;;;5031622;28;20018;-82
2022/05/21 10:31:13;;;;;;;8.10;1.80;;;19.20;73.50;;;;;;5048818;28;20068;-84
2022/05/21 10:33:50;;;;;;;12.88;2.20;;;19.20;72.40;;;;;;5040913;28;20064;-83
2022/05/21 10:36:48;;;;;;;11.25;1.58;;;19.30;72.30;;;;;;5025098;28;20020;-81
2022/05/21 10:39:52;;;;;;;7.53;1.90;;;19.40;72.80;;;;;;5042077;28;20425;-86
2022/05/21 10:42:45;;;;;;;9.73;1.65;;;19.60;72.70;;;;;;4994973;28;20044;-83
2022/05/21 10:45:36;;;;;;;8.98;1.95;;;19.80;72.10;;;;;;5028961;28;20053;-81
2022/05/21 10:48:25;;;;;;;10.63;2.25;;;19.80;71.80;;;;;;5010521;28;20029;-82
2022/05/21 10:50:59;;;;;;;7.18;1.65;;;19.80;71.80;;;;;;4996095;28;20041;-84
2022/05/21 10:53:58;;;;;;;9.20;1.83;;;20.00;70.80;;;;;;5025484;28;20362;-82
2022/05/21 10:56:52;;;;;;;10.15;1.75;;;20.00;69.50;;;;;;5032092;28;20076;-83
2022/05/21 10:59:57;;;;;;;7.82;1.80;;;20.00;68.80;;;;;;5015735;28;20060;-80
2022/05/21 11:02:55;;;;;;;;;;;20.10;69.20;;;;;;5032304;28;20021;-84
2022/05/21 11:05:49;;;;;;;11.88;2.53;;;20.10;68.10;;;;;;5032156;28;20005;-76
2022/05/21 11:08:52;;;;;;;8.05;1.55;;;20.00;67.70;;;;;;5014994;28;20032;-77
2022/05/21 11:11:51;;;;;;;11.63;2.38;;;20.00;68.50;;;;;;5031501;28;20473;-79
2022/05/21 11:14:40;;;;;;;11.25;2.30;;;20.10;68.10;;;;;;5015440;28;20022;-85
2022/05/21 11:17:21;;;;;;;8.95;1.80;;;20.10;68.40;;;;;;5033169;28;20024;-84
2022/05/21 11:20:06;;;;;;;9.25;1.67;;;20.00;67.80;;;;;;5031738;28;20068;-79
2022/05/21 11:22:50;;;;;;;11.98;1.80;;;20.00;67.70;;;;;;5015061;28;20036;-78
2022/05/21 11:25:18;;;;;;;9.63;2.22;;;20.00;67.30;;;;;;5031546;28;20033;-78
2022/05/21 11:28:10;;;;;;;6.28;1.58;;;19.90;67.20;;;;;;5032715;28;20500;-76
2022/05/21 11:30:36;;;;;;;13.50;2.47;;;19.80;67.90;;;;;;4978346;28;20045;-78
2022/05/21 11:38:43;;;;;;;8.57;2.10;;;20.00;68.00;;;;;;5036340;28;20036;-78
2022/05/21 11:41:24;;;;;;;10.32;2.40;;;20.30;68.00;;;;;;5015243;28;20060;-76
2022/05/21 11:47:20;;;;;;;9.90;2.28;;;21.00;67.30;;;;;;5015126;28;20049;-80
2022/05/21 11:50:18;;;;;;;8.50;1.67;;;21.40;65.70;;;;;;5005283;28;20034;-77
2022/05/21 11:52:52;;;;;;;9.18;1.40;;;21.70;64.90;;;;;;4985972;28;20046;-79
2022/05/21 11:55:24;;;;;;;7.95;2.03;;;21.70;64.10;;;;;;5032211;28;20068;-85
2022/05/21 11:57:59;;;;;;;8.57;1.33;;;21.60;62.60;;;;;;5034990;28;20386;-81
2022/05/21 12:00:24;;;;;;;8.75;1.20;;;21.40;62.60;;;;;;5034712;28;20092;-86
2022/05/21 12:02:53;;;;;;;8.18;1.40;;;21.60;62.80;;;;;;5035394;28;20511;-86
2022/05/21 12:08:21;;;;;;;8.00;1.10;;;22.70;62.30;;;;;;5022886;28;20021;-84
2022/05/21 12:11:28;;;;;;;7.80;1.27;;;23.30;60.50;;;;;;5034475;28;20438;-83
2022/05/21 12:14:15;;;;;;;5.65;1.00;;;23.60;60.20;;;;;;5032418;28;20406;-78
2022/05/21 12:16:44;;;;;;;5.93;1.15;;;23.80;60.20;;;;;;5034095;28;20060;-79
2022/05/21 12:19:35;;;;;;;6.30;1.17;;;23.90;60.10;;;;;;5035531;28;20041;-79
2022/05/21 12:22:03;;;;;;;5.93;1.27;;;23.90;59.70;;;;;;4996354;28;20033;-79
2022/05/21 12:24:41;;;;;;;7.97;1.10;;;24.00;58.80;;;;;;5034262;28;20029;-79
2022/05/21 12:27:22;;;;;;;6.82;1.10;;;24.10;58.20;;;;;;5035943;28;20470;-79
2022/05/21 12:29:51;;;;;;;5.28;0.82;;;24.20;57.90;;;;;;5027584;28;20028;-80
2022/05/21 12:32:24;;;;;;;7.30;1.10;;;24.20;57.90;;;;;;5014331;28;20060;-79
2022/05/21 12:35:27;;;;;;;3.90;0.85;;;24.10;57.70;;;;;;5022117;28;20469;-77
2022/05/21 12:38:11;;;;;;;7.13;1.27;;;23.90;57.30;;;;;;5035216;28;20022;-79
2022/05/21 12:40:53;;;;;;;7.63;1.10;;;23.90;57.20;;;;;;5028976;28;20022;-80
2022/05/21 12:43:19;;;;;;;5.82;1.20;;;23.70;57.10;;;;;;5013630;28;20049;-78
2022/05/21 12:45:52;;;;;;;9.02;1.10;;;23.70;57.20;;;;;;5030046;28;20095;-78
2022/05/21 12:48:20;;;;;;;6.45;1.25;;;23.60;57.50;;;;;;5017075;28;20028;-78
2022/05/21 12:51:18;;;;;;;9.88;1.23;;;23.50;57.50;;;;;;5016970;28;20389;-78
2022/05/21 12:53:55;;;;;;;6.63;1.23;;;23.40;57.70;;;;;;5033508;28;20120;-77
2022/05/21 12:56:24;;;;;;;5.72;0.98;;;23.20;57.80;;;;;;5017049;28;20025;-79
2022/05/21 12:59:10;;;;;;;9.00;1.52;;;23.00;57.80;;;;;;5033644;28;20032;-78
2022/05/21 13:01:43;;;;;;;8.70;1.40;;;22.90;58.00;;;;;;5033315;28;20030;-80
2022/05/21 13:04:45;;;;;;;7.40;1.27;;;22.80;58.30;;;;;;5034387;28;20022;-78
2022/05/21 13:07:30;;;;;;;9.88;2.10;;;22.60;59.10;;;;;;4935397;29;20050;-78
2022/05/21 13:09:59;;;;;;;6.68;1.25;;;22.80;58.90;;;;;;5011120;28;20034;-77
2022/05/21 13:12:29;;;;;;;6.80;1.27;;;22.90;58.80;;;;;;5014922;28;20022;-77
2022/05/21 13:14:55;;;;;;;6.68;1.20;;;23.20;58.70;;;;;;5015077;28;20025;-77
2022/05/21 13:17:21;;;;;;;4.38;0.82;;;23.40;58.40;;;;;;5049746;28;20029;-79
2022/05/21 13:20:08;;;;;;;4.32;0.77;;;23.50;58.10;;;;;;5033293;28;20026;-78
2022/05/21 13:22:34;;;;;;;5.93;0.95;;;23.80;57.60;;;;;;5031532;28;20021;-76
2022/05/21 13:25:04;;;;;;;5.43;0.82;;;23.90;57.10;;;;;;5049675;28;20025;-77
2022/05/21 13:27:43;;;;;;;6.57;0.80;;;23.90;56.50;;;;;;5034045;28;20500;-77
2022/05/21 13:30:14;;;;;;;7.65;0.88;;;23.80;56.20;;;;;;5023105;28;20434;-77
2022/05/21 13:32:39;;;;;;;5.40;0.90;;;23.80;55.80;;;;;;5023098;28;20556;-78
2022/05/21 13:35:25;;;;;;;5.78;1.00;;;23.80;55.90;;;;;;4996713;28;20033;-80